sensor_id;sensor_type;location;lat;lon;timestamp;P1;durP1;ratioP1;P2;durP2;ratioP2
3278;SDS011;1651;50.940;6.888;2022-09-12T04:53:33;18.60;;;13.30;;
3278;SDS011;1651;50.940;6.888;2022-09-12T04:56:02;19.93;;;12.60;;
3278;SDS011;1651;50.940;6.888;2022-09-12T04:58:30;24.57;;;14.23;;
3278;SDS011;1651;50.940;6.888;2022-09-12T05:01:02;19.87;;;13.23;;
3278;SDS011;1651;50.940;6.888;2022-09-12T05:03:28;22.13;;;12.47;;
3278;SDS011;1651;50.940;6.888;2022-09-12T05:05:54;20.10;;;12.50;;
3278;SDS011;1651;50.940;6.888;2022-09-12T05:08:20;19.50;;;12.83;;
3278;SDS011;1651;50.940;6.888;2022-09-12T05:10:46;22.87;;;13.97;;
3278;SDS011;1651;50.940;6.888;2022-09-12T05:13:12;20.13;;;12.40;;
3278;SDS011;1651;50.940;6.888;2022-09-12T05:15:40;14.27;;;10.23;;
3278;SDS011;1651;50.940;6.888;2022-09-12T05:18:05;17.23;;;11.23;;
3278;SDS011;1651;50.940;6.888;2022-09-12T05:20:32;18.77;;;10.43;;
3278;SDS011;1651;50.940;6.888;2022-09-12T05:22:58;23.83;;;13.67;;
3278;SDS011;1651;50.940;6.888;2022-09-12T05:25:26;20.93;;;11.70;;
3278;SDS011;1651;50.940;6.888;2022-09-12T05:27:52;20.27;;;13.00;;
3278;SDS011;1651;50.940;6.888;2022-09-12T05:30:18;20.23;;;12.90;;
3278;SDS011;1651;50.940;6.888;2022-09-12T05:32:44;18.80;;;13.07;;
3278;SDS011;1651;50.940;6.888;2022-09-12T05:35:10;19.17;;;12.57;;
3278;SDS011;1651;50.940;6.888;2022-09-12T05:37:38;31.60;;;14.27;;
3278;SDS011;1651;50.940;6.888;2022-09-12T05:40:26;21.17;;;12.80;;
3278;SDS011;1651;50.940;6.888;2022-09-12T05:42:57;28.50;;;13.80;;
3278;SDS011;1651;50.940;6.888;2022-09-12T05:45:23;24.93;;;14.37;;
3278;SDS011;1651;50.940;6.888;2022-09-12T05:47:51;21.00;;;13.43;;
3278;SDS011;1651;50.940;6.888;2022-09-12T05:50:18;19.90;;;12.50;;
3278;SDS011;1651;50.940;6.888;2022-09-12T05:52:44;17.67;;;11.00;;
3278;SDS011;1651;50.940;6.888;2022-09-12T05:55:11;22.27;;;12.50;;
3278;SDS011;1651;50.940;6.888;2022-09-12T05:57:37;15.40;;;10.27;;
3278;SDS011;1651;50.940;6.888;2022-09-12T06:00:03;17.00;;;11.10;;
3278;SDS011;1651;50.940;6.888;2022-09-12T06:02:31;15.23;;;9.73;;
3278;SDS011;1651;50.940;6.888;2022-09-12T06:04:56;15.87;;;10.33;;
3278;SDS011;1651;50.940;6.888;2022-09-12T06:07:22;16.17;;;10.20;;
3278;SDS011;1651;50.940;6.888;2022-09-12T06:09:49;16.07;;;11.13;;
3278;SDS011;1651;50.940;6.888;2022-09-12T06:12:15;14.90;;;10.33;;
3278;SDS011;1651;50.940;6.888;2022-09-12T06:14:41;14.93;;;10.07;;
3278;SDS011;1651;50.940;6.888;2022-09-12T06:17:08;14.90;;;9.97;;
3278;SDS011;1651;50.940;6.888;2022-09-12T06:19:34;14.43;;;9.97;;
3278;SDS011;1651;50.940;6.888;2022-09-12T06:22:00;18.07;;;10.73;;
3278;SDS011;1651;50.940;6.888;2022-09-12T06:24:27;15.20;;;9.90;;
3278;SDS011;1651;50.940;6.888;2022-09-12T06:26:54;15.50;;;9.83;;
3278;SDS011;1651;50.940;6.888;2022-09-12T06:29:21;16.27;;;10.00;;
3278;SDS011;1651;50.940;6.888;2022-09-12T06:31:51;12.33;;;9.13;;
3278;SDS011;1651;50.940;6.888;2022-09-12T06:34:19;14.47;;;10.17;;
3278;SDS011;1651;50.940;6.888;2022-09-12T06:36:47;15.13;;;10.40;;
3278;SDS011;1651;50.940;6.888;2022-09-12T06:39:18;12.80;;;8.73;;
3278;SDS011;1651;50.940;6.888;2022-09-12T06:41:45;14.70;;;10.30;;
3278;SDS011;1651;50.940;6.888;2022-09-12T06:44:16;14.70;;;9.33;;
3278;SDS011;1651;50.940;6.888;2022-09-12T06:46:45;9.13;;;6.50;;
3278;SDS011;1651;50.940;6.888;2022-09-12T06:49:11;15.03;;;11.00;;
3278;SDS011;1651;50.940;6.888;2022-09-12T06:51:37;17.03;;;10.83;;
3278;SDS011;1651;50.940;6.888;2022-09-12T06:54:05;11.20;;;7.37;;
3278;SDS011;1651;50.940;6.888;2022-09-12T06:56:32;15.87;;;9.40;;
3278;SDS011;1651;50.940;6.888;2022-09-12T06:59:00;12.07;;;9.50;;
3278;SDS011;1651;50.940;6.888;2022-09-12T07:01:28;12.80;;;7.87;;
3278;SDS011;1651;50.940;6.888;2022-09-12T07:03:59;10.57;;;7.73;;
3278;SDS011;1651;50.940;6.888;2022-09-12T11:03:52;4.50;;;4.10;;
3278;SDS011;1651;50.940;6.888;2022-09-12T11:06:25;5.20;;;4.70;;
3278;SDS011;1651;50.940;6.888;2022-09-12T11:09:12;5.77;;;4.90;;
3278;SDS011;1651;50.940;6.888;2022-09-12T11:14:50;7.37;;;4.00;;
3278;SDS011;1651;50.940;6.888;2022-09-12T11:19:47;4.50;;;4.10;;
3278;SDS011;1651;50.940;6.888;2022-09-12T11:30:10;3.10;;;2.80;;
3278;SDS011;1651;50.940;6.888;2022-09-12T11:37:53;3.57;;;3.27;;
3278;SDS011;1651;50.940;6.888;2022-09-12T11:42:50;3.50;;;2.83;;
3278;SDS011;1651;50.940;6.888;2022-09-12T11:45:50;3.53;;;3.23;;
3278;SDS011;1651;50.940;6.888;2022-09-12T11:48:54;4.80;;;3.40;;
3278;SDS011;1651;50.940;6.888;2022-09-12T11:50:58;3.63;;;3.33;;
3278;SDS011;1651;50.940;6.888;2022-09-12T11:53:27;3.90;;;3.40;;
3278;SDS011;1651;50.940;6.888;2022-09-12T11:58:30;4.23;;;2.90;;
3278;SDS011;1651;50.940;6.888;2022-09-12T12:01:05;3.03;;;2.80;;
3278;SDS011;1651;50.940;6.888;2022-09-12T12:03:41;3.10;;;2.63;;
3278;SDS011;1651;50.940;6.888;2022-09-12T12:08:42;4.53;;;3.40;;
3278;SDS011;1651;50.940;6.888;2022-09-12T12:11:09;4.27;;;3.37;;
3278;SDS011;1651;50.940;6.888;2022-09-12T12:13:47;2.63;;;2.43;;
3278;SDS011;1651;50.940;6.888;2022-09-12T12:18:52;4.27;;;3.20;;
3278;SDS011;1651;50.940;6.888;2022-09-12T12:29:11;3.27;;;2.97;;
3278;SDS011;1651;50.940;6.888;2022-09-12T12:34:31;3.80;;;3.27;;
3278;SDS011;1651;50.940;6.888;2022-09-12T12:36:58;3.70;;;3.40;;
3278;SDS011;1651;50.940;6.888;2022-09-12T12:50:03;3.50;;;3.20;;
3278;SDS011;1651;50.940;6.888;2022-09-12T12:52:32;4.27;;;3.80;;
3278;SDS011;1651;50.940;6.888;2022-09-12T12:55:13;3.70;;;3.40;;
3278;SDS011;1651;50.940;6.888;2022-09-12T13:00:07;8.70;;;3.43;;
3278;SDS011;1651;50.940;6.888;2022-09-12T13:02:34;4.30;;;3.90;;
3278;SDS011;1651;50.940;6.888;2022-09-12T13:05:03;3.70;;;3.40;;
3278;SDS011;1651;50.940;6.888;2022-09-12T13:07:32;4.17;;;3.77;;
3278;SDS011;1651;50.940;6.888;2022-09-12T13:09:59;3.57;;;3.27;;
3278;SDS011;1651;50.940;6.888;2022-09-12T13:12:27;3.63;;;3.33;;
3278;SDS011;1651;50.940;6.888;2022-09-12T13:14:56;4.17;;;2.90;;
3278;SDS011;1651;50.940;6.888;2022-09-12T13:20:17;3.87;;;3.20;;
3278;SDS011;1651;50.940;6.888;2022-09-12T13:22:48;3.43;;;2.80;;
3278;SDS011;1651;50.940;6.888;2022-09-12T13:25:31;5.23;;;2.97;;
3278;SDS011;1651;50.940;6.888;2022-09-12T13:28:15;3.50;;;3.20;;
3278;SDS011;1651;50.940;6.888;2022-09-12T13:30:46;4.00;;;3.60;;
3278;SDS011;1651;50.940;6.888;2022-09-12T13:33:23;3.60;;;3.27;;
3278;SDS011;1651;50.940;6.888;2022-09-12T13:41:29;3.37;;;3.10;;
3278;SDS011;1651;50.940;6.888;2022-09-12T13:43:57;3.43;;;3.13;;
3278;SDS011;1651;50.940;6.888;2022-09-12T13:46:27;3.40;;;2.73;;
3278;SDS011;1651;50.940;6.888;2022-09-12T13:48:56;3.50;;;3.20;;
3278;SDS011;1651;50.940;6.888;2022-09-12T13:51:26;4.20;;;3.80;;
3278;SDS011;1651;50.940;6.888;2022-09-12T13:53:54;4.30;;;3.50;;
3278;SDS011;1651;50.940;6.888;2022-09-12T13:56:22;3.17;;;2.97;;
3278;SDS011;1651;50.940;6.888;2022-09-12T13:58:52;2.70;;;2.50;;
3278;SDS011;1651;50.940;6.888;2022-09-12T14:01:20;3.80;;;3.23;;
3278;SDS011;1651;50.940;6.888;2022-09-12T14:03:51;5.17;;;3.10;;
3278;SDS011;1651;50.940;6.888;2022-09-12T14:06:50;3.77;;;3.47;;
3278;SDS011;1651;50.940;6.888;2022-09-12T14:09:23;3.90;;;3.17;;
3278;SDS011;1651;50.940;6.888;2022-09-12T14:11:50;4.27;;;3.07;;
3278;SDS011;1651;50.940;6.888;2022-09-12T14:14:18;4.13;;;3.67;;
3278;SDS011;1651;50.940;6.888;2022-09-12T14:16:46;3.60;;;3.30;;
3278;SDS011;1651;50.940;6.888;2022-09-12T14:21:50;3.67;;;3.37;;
3278;SDS011;1651;50.940;6.888;2022-09-12T14:24:17;3.87;;;2.93;;
3278;SDS011;1651;50.940;6.888;2022-09-12T14:26:57;3.20;;;2.90;;
3278;SDS011;1651;50.940;6.888;2022-09-12T14:37:34;5.73;;;3.60;;
3278;SDS011;1651;50.940;6.888;2022-09-12T14:40:31;3.50;;;3.23;;
3278;SDS011;1651;50.940;6.888;2022-09-12T14:43:58;5.07;;;4.53;;
3278;SDS011;1651;50.940;6.888;2022-09-12T15:15:55;4.33;;;2.73;;
3278;SDS011;1651;50.940;6.888;2022-09-12T15:18:34;3.27;;;3.03;;
3278;SDS011;1651;50.940;6.888;2022-09-12T15:21:04;3.70;;;2.83;;
3278;SDS011;1651;50.940;6.888;2022-09-12T15:23:45;3.43;;;3.13;;
3278;SDS011;1651;50.940;6.888;2022-09-12T15:26:12;7.23;;;3.20;;
3278;SDS011;1651;50.940;6.888;2022-09-12T15:28:39;4.43;;;3.40;;
3278;SDS011;1651;50.940;6.888;2022-09-12T15:31:09;5.17;;;3.17;;
3278;SDS011;1651;50.940;6.888;2022-09-12T15:33:36;4.00;;;3.60;;
3278;SDS011;1651;50.940;6.888;2022-09-12T15:36:19;3.50;;;3.17;;
3278;SDS011;1651;50.940;6.888;2022-09-12T15:38:45;3.43;;;3.13;;
3278;SDS011;1651;50.940;6.888;2022-09-12T15:41:13;3.53;;;3.23;;
3278;SDS011;1651;50.940;6.888;2022-09-12T15:43:39;4.03;;;3.63;;
3278;SDS011;1651;50.940;6.888;2022-09-12T15:46:05;3.60;;;3.27;;
3278;SDS011;1651;50.940;6.888;2022-09-12T15:48:31;3.40;;;3.10;;
3278;SDS011;1651;50.940;6.888;2022-09-12T15:50:58;3.73;;;3.10;;
3278;SDS011;1651;50.940;6.888;2022-09-12T15:53:28;3.17;;;2.87;;
3278;SDS011;1651;50.940;6.888;2022-09-12T15:55:56;4.83;;;3.63;;
3278;SDS011;1651;50.940;6.888;2022-09-12T15:58:22;2.93;;;2.63;;
3278;SDS011;1651;50.940;6.888;2022-09-12T16:00:48;7.47;;;3.50;;
3278;SDS011;1651;50.940;6.888;2022-09-12T16:03:16;3.97;;;3.67;;
3278;SDS011;1651;50.940;6.888;2022-09-12T16:05:46;5.80;;;2.83;;
3278;SDS011;1651;50.940;6.888;2022-09-12T16:08:13;3.13;;;2.83;;
3278;SDS011;1651;50.940;6.888;2022-09-12T16:10:40;16.20;;;4.10;;
3278;SDS011;1651;50.940;6.888;2022-09-12T16:13:07;3.20;;;2.90;;
3278;SDS011;1651;50.940;6.888;2022-09-12T16:15:33;2.87;;;2.67;;
3278;SDS011;1651;50.940;6.888;2022-09-12T16:17:59;3.30;;;3.00;;
3278;SDS011;1651;50.940;6.888;2022-09-12T16:20:25;3.23;;;2.93;;
3278;SDS011;1651;50.940;6.888;2022-09-12T16:22:53;2.50;;;2.30;;
3278;SDS011;1651;50.940;6.888;2022-09-12T16:25:22;8.43;;;3.43;;
3278;SDS011;1651;50.940;6.888;2022-09-12T16:27:49;3.97;;;3.40;;
3278;SDS011;1651;50.940;6.888;2022-09-12T16:30:15;3.00;;;2.37;;
3278;SDS011;1651;50.940;6.888;2022-09-12T16:32:41;3.30;;;3.00;;
3278;SDS011;1651;50.940;6.888;2022-09-12T16:35:07;3.67;;;3.13;;
3278;SDS011;1651;50.940;6.888;2022-09-12T16:37:33;4.00;;;3.20;;
3278;SDS011;1651;50.940;6.888;2022-09-12T16:40:00;3.20;;;2.97;;
3278;SDS011;1651;50.940;6.888;2022-09-12T16:42:26;2.80;;;2.30;;
3278;SDS011;1651;50.940;6.888;2022-09-12T16:44:52;3.87;;;3.03;;
3278;SDS011;1651;50.940;6.888;2022-09-12T16:47:24;3.50;;;2.53;;
3278;SDS011;1651;50.940;6.888;2022-09-12T16:50:00;5.20;;;2.70;;
3278;SDS011;1651;50.940;6.888;2022-09-12T16:52:29;2.60;;;2.30;;
3278;SDS011;1651;50.940;6.888;2022-09-12T16:54:58;2.40;;;2.00;;
3278;SDS011;1651;50.940;6.888;2022-09-12T16:57:24;4.43;;;2.43;;
3278;SDS011;1651;50.940;6.888;2022-09-12T16:59:53;2.43;;;2.23;;
3278;SDS011;1651;50.940;6.888;2022-09-12T17:02:21;2.93;;;2.33;;
3278;SDS011;1651;50.940;6.888;2022-09-12T17:04:47;3.00;;;2.70;;
3278;SDS011;1651;50.940;6.888;2022-09-12T17:07:14;2.97;;;2.67;;
3278;SDS011;1651;50.940;6.888;2022-09-12T17:09:40;6.57;;;3.00;;
3278;SDS011;1651;50.940;6.888;2022-09-12T17:12:12;2.57;;;1.90;;
3278;SDS011;1651;50.940;6.888;2022-09-12T17:14:42;2.70;;;2.10;;
3278;SDS011;1651;50.940;6.888;2022-09-12T17:17:08;2.67;;;2.30;;
3278;SDS011;1651;50.940;6.888;2022-09-12T17:19:34;2.60;;;2.30;;
3278;SDS011;1651;50.940;6.888;2022-09-12T17:22:00;2.47;;;2.20;;
3278;SDS011;1651;50.940;6.888;2022-09-12T17:27:02;2.43;;;2.23;;
3278;SDS011;1651;50.940;6.888;2022-09-12T17:29:37;4.40;;;2.57;;
3278;SDS011;1651;50.940;6.888;2022-09-12T17:32:06;9.30;;;2.87;;
3278;SDS011;1651;50.940;6.888;2022-09-12T17:34:32;2.60;;;2.40;;
3278;SDS011;1651;50.940;6.888;2022-09-12T17:36:59;4.20;;;2.90;;
3278;SDS011;1651;50.940;6.888;2022-09-12T17:39:47;4.17;;;3.17;;
3278;SDS011;1651;50.940;6.888;2022-09-12T17:42:19;3.90;;;3.10;;
3278;SDS011;1651;50.940;6.888;2022-09-12T17:47:18;4.50;;;3.33;;
3278;SDS011;1651;50.940;6.888;2022-09-12T17:49:45;3.90;;;3.30;;
3278;SDS011;1651;50.940;6.888;2022-09-12T17:55:20;3.30;;;3.00;;
3278;SDS011;1651;50.940;6.888;2022-09-12T17:57:55;3.90;;;3.10;;
3278;SDS011;1651;50.940;6.888;2022-09-12T18:03:28;3.07;;;2.87;;
3278;SDS011;1651;50.940;6.888;2022-09-12T18:05:56;4.57;;;3.47;;
3278;SDS011;1651;50.940;6.888;2022-09-12T18:11:27;4.10;;;2.57;;
3278;SDS011;1651;50.940;6.888;2022-09-12T18:13:53;4.77;;;2.40;;
3278;SDS011;1651;50.940;6.888;2022-09-12T18:16:20;3.17;;;2.87;;
3278;SDS011;1651;50.940;6.888;2022-09-12T18:18:52;2.40;;;2.20;;
3278;SDS011;1651;50.940;6.888;2022-09-12T18:21:25;4.47;;;2.90;;
3278;SDS011;1651;50.940;6.888;2022-09-12T18:23:58;2.73;;;2.53;;
3278;SDS011;1651;50.940;6.888;2022-09-12T18:26:33;2.87;;;2.57;;
3278;SDS011;1651;50.940;6.888;2022-09-12T18:29:01;2.47;;;2.27;;
3278;SDS011;1651;50.940;6.888;2022-09-12T22:57:16;5.77;;;3.60;;
3278;SDS011;1651;50.940;6.888;2022-09-12T22:59:43;6.10;;;4.10;;
3278;SDS011;1651;50.940;6.888;2022-09-12T23:02:10;4.90;;;3.70;;
3278;SDS011;1651;50.940;6.888;2022-09-12T23:04:36;7.70;;;4.53;;
3278;SDS011;1651;50.940;6.888;2022-09-12T23:07:03;3.70;;;3.40;;
3278;SDS011;1651;50.940;6.888;2022-09-12T23:09:29;5.30;;;3.90;;
3278;SDS011;1651;50.940;6.888;2022-09-12T23:11:55;6.33;;;4.27;;
3278;SDS011;1651;50.940;6.888;2022-09-12T23:14:21;8.90;;;4.67;;
3278;SDS011;1651;50.940;6.888;2022-09-12T23:16:48;6.50;;;4.03;;
3278;SDS011;1651;50.940;6.888;2022-09-12T23:19:16;5.43;;;4.27;;
3278;SDS011;1651;50.940;6.888;2022-09-12T23:21:43;6.90;;;4.83;;
3278;SDS011;1651;50.940;6.888;2022-09-12T23:24:09;5.97;;;4.40;;
3278;SDS011;1651;50.940;6.888;2022-09-12T23:26:35;6.50;;;3.80;;
3278;SDS011;1651;50.940;6.888;2022-09-12T23:29:03;6.07;;;3.90;;
3278;SDS011;1651;50.940;6.888;2022-09-12T23:31:30;4.37;;;3.77;;
3278;SDS011;1651;50.940;6.888;2022-09-12T23:33:58;5.07;;;3.90;;
3278;SDS011;1651;50.940;6.888;2022-09-12T23:36:26;5.13;;;4.20;;
3278;SDS011;1651;50.940;6.888;2022-09-12T23:39:21;5.50;;;5.00;;
3278;SDS011;1651;50.940;6.888;2022-09-12T23:45:45;7.10;;;4.20;;
3278;SDS011;1651;50.940;6.888;2022-09-12T23:48:14;7.33;;;4.27;;
3278;SDS011;1651;50.940;6.888;2022-09-12T23:50:48;5.30;;;4.80;;
3278;SDS011;1651;50.940;6.888;2022-09-12T23:53:27;7.43;;;4.30;;
3278;SDS011;1651;50.940;6.888;2022-09-12T23:56:06;6.30;;;5.10;;
